Time;durP1;ratioP1;P1;durP2;ratioP2;P2;SDS_P1;SDS_P2;PMS_P1;PMS_P2;Temp;Humidity;BMP_temperature;BMP_pressure;BME280_temperature;BME280_humidity;BME280_pressure;Samples;Min_cycle;Max_cycle;Signal;HPM_P1;HPM_P2
2019/11/06 00:01:38;;;;;;;7.5;5.1;;;;;;;6.04;97.0752;945.0401;;;;
2019/11/06 00:04:03;;;;;;;6.5;5;;;;;;;6.13;96.2666;945.0444;;;;
2019/11/06 00:06:28;;;;;;;7.6;5.6;;;;;;;6.05;95.61035;945.0234;;;;
2019/11/06 00:08:53;;;;;;;5.9;4.8;;;;;;;6.15;96.89648;945.0036;;;;
2019/11/06 00:11:18;;;;;;;5.9;4.5;;;;;;;6.26;96.13477;945.0753;;;;
2019/11/06 00:13:43;;;;;;;6.9;4.7;;;;;;;6.28;96.44629;945.1036;;;;
2019/11/06 00:16:09;;;;;;;7.2;5;;;;;;;6.32;95.80469;945.1027;;;;
2019/11/06 00:18:34;;;;;;;8;5.8;;;;;;;6.21;95.61035;945.1175;;;;
2019/11/06 00:20:59;;;;;;;7.2;4.7;;;;;;;6.22;96.75195;945.1498;;;;
2019/11/06 00:23:24;;;;;;;7.3;5.1;;;;;;;6.14;95.44824;945.1248;;;;
2019/11/06 00:25:50;;;;;;;6.8;4.7;;;;;;;6.09;95.91406;945.1702;;;;
2019/11/06 00:28:15;;;;;;;6.2;5.1;;;;;;;6.21;96.875;945.1442;;;;
2019/11/06 00:30:40;;;;;;;6.4;4.8;;;;;;;6.32;96.77539;945.1431;;;;
2019/11/06 00:33:05;;;;;;;6.8;4.4;;;;;;;6.25;95.62207;945.1247;;;;
2019/11/06 00:35:30;;;;;;;6.9;4.5;;;;;;;6.3;96.71289;945.0919;;;;
2019/11/06 00:37:55;;;;;;;6.7;4.4;;;;;;;6.21;95.50781;945.1926;;;;
2019/11/06 00:40:20;;;;;;;5.8;4.1;;;;;;;6.28;96.5166;945.1451;;;;
2019/11/06 00:42:46;;;;;;;6.4;4.1;;;;;;;6.18;95.86621;945.1632;;;;
2019/11/06 00:45:11;;;;;;;6.6;4.4;;;;;;;6.17;96.38867;945.1794;;;;
2019/11/06 00:47:36;;;;;;;6.7;4.1;;;;;;;6.19;95.87988;945.1827;;;;
2019/11/06 00:50:01;;;;;;;5.7;4.3;;;;;;;6.14;96.0957;945.1944;;;;
2019/11/06 00:52:26;;;;;;;7.2;4.5;;;;;;;6.21;95.43945;945.128;;;;
2019/11/06 00:54:51;;;;;;;5.4;4.1;;;;;;;6.27;95.8291;945.1537;;;;
2019/11/06 00:57:16;;;;;;;6.1;4.4;;;;;;;6.13;95.52539;945.2081;;;;
2019/11/06 00:59:41;;;;;;;5.2;4.2;;;;;;;6.17;95.11426;945.257;;;;
2019/11/06 01:02:07;;;;;;;5.2;4;;;;;;;6.2;95.16602;945.3002;;;;
2019/11/06 01:04:32;;;;;;;5.2;4.3;;;;;;;6.22;95.83984;945.276;;;;
2019/11/06 01:06:57;;;;;;;6.3;4.5;;;;;;;6.32;95.37402;945.2758;;;;
2019/11/06 01:09:22;;;;;;;5.3;4.2;;;;;;;6.28;94.81934;945.2972;;;;
2019/11/06 01:11:47;;;;;;;6.2;4.6;;;;;;;6.02;95.45605;945.332;;;;
2019/11/06 01:14:12;;;;;;;7.4;4.7;;;;;;;6.09;96.0625;945.366;;;;
2019/11/06 01:16:37;;;;;;;6;4.5;;;;;;;6.05;95.64453;945.359;;;;
2019/11/06 01:19:02;;;;;;;6.8;4.5;;;;;;;6.18;95.54883;945.3953;;;;
2019/11/06 01:21:28;;;;;;;5.4;4.1;;;;;;;6.25;94.61719;945.4684;;;;
2019/11/06 01:23:53;;;;;;;6.1;4.2;;;;;;;6.18;94.28418;945.4519;;;;
2019/11/06 01:28:43;;;;;;;5.7;4.4;;;;;;;6.09;95.01465;945.3578;;;;
2019/11/06 01:31:11;;;;;;;6.7;4.4;;;;;;;6.04;95.02734;945.3614;;;;
2019/11/06 01:33:33;;;;;;;6.6;4.3;;;;;;;6.14;95.69824;945.407;;;;
2019/11/06 01:35:58;;;;;;;6.2;4.3;;;;;;;6.04;95.59473;945.3756;;;;
2019/11/06 01:38:23;;;;;;;5.1;4.1;;;;;;;6.05;95.48535;945.3308;;;;
2019/11/06 01:40:48;;;;;;;5.6;4.7;;;;;;;6.04;96.34668;945.3328;;;;
2019/11/06 01:43:13;;;;;;;6.9;4.9;;;;;;;6.27;95.45313;945.3552;;;;
2019/11/06 01:45:39;;;;;;;8.2;5.4;;;;;;;6.15;95.86035;945.3367;;;;
2019/11/06 01:48:04;;;;;;;7.9;5.1;;;;;;;6.15;95.55469;945.323;;;;
2019/11/06 01:50:29;;;;;;;5.9;4.9;;;;;;;6.31;95.70215;945.3046;;;;
2019/11/06 01:52:54;;;;;;;8.7;5.2;;;;;;;6.26;95.74707;945.3042;;;;
2019/11/06 01:55:19;;;;;;;6;5.2;;;;;;;6.15;95.61133;945.2842;;;;
2019/11/06 01:57:44;;;;;;;6.9;5;;;;;;;6.32;96.375;945.2612;;;;
2019/11/06 02:00:10;;;;;;;5.3;4.4;;;;;;;6.42;95.39648;945.2825;;;;
2019/11/06 02:02:35;;;;;;;5.8;4.8;;;;;;;6.44;95.35449;945.2189;;;;
2019/11/06 02:05:00;;;;;;;7;4.8;;;;;;;6.48;94.31348;945.2363;;;;
2019/11/06 02:07:25;;;;;;;5.7;4.7;;;;;;;6.37;95.53418;945.2288;;;;
2019/11/06 02:09:51;;;;;;;7.8;4.9;;;;;;;6.27;96.02344;945.2031;;;;
2019/11/06 02:12:16;;;;;;;6.3;4.8;;;;;;;6.32;96.46582;945.2054;;;;
2019/11/06 02:14:42;;;;;;;8;5.4;;;;;;;6.25;95.51758;945.2419;;;;
2019/11/06 02:17:07;;;;;;;6.3;5;;;;;;;6.31;96.2041;945.3289;;;;
2019/11/06 02:19:32;;;;;;;7.7;5.2;;;;;;;6.24;96.04004;945.3289;;;;
2019/11/06 02:21:57;;;;;;;7.4;5.4;;;;;;;6.22;96.36621;945.3253;;;;
2019/11/06 02:24:22;;;;;;;6.9;5.4;;;;;;;6.27;97.31055;945.2946;;;;
2019/11/06 02:26:47;;;;;;;8.1;5.4;;;;;;;6.39;97.03125;945.2863;;;;
2019/11/06 02:29:13;;;;;;;7.4;5.2;;;;;;;6.49;97.50977;945.3148;;;;
2019/11/06 02:31:38;;;;;;;8.3;5.7;;;;;;;6.59;96.9502;945.35;;;;
2019/11/06 02:34:04;;;;;;;6.4;5.5;;;;;;;6.47;95.86426;945.3018;;;;
2019/11/06 02:36:29;;;;;;;7.6;5.7;;;;;;;6.5;96.41699;945.3434;;;;
2019/11/06 02:38:55;;;;;;;7.2;5;;;;;;;6.5;95.89063;945.2786;;;;
2019/11/06 02:41:20;;;;;;;7.5;5.5;;;;;;;6.63;97.20996;945.284;;;;
2019/11/06 02:43:45;;;;;;;7;4.9;;;;;;;6.72;97.03613;945.259;;;;
2019/11/06 02:46:10;;;;;;;6.9;5;;;;;;;6.61;96.79688;945.3253;;;;
2019/11/06 02:48:36;;;;;;;6.5;5.2;;;;;;;6.66;97.56934;945.3013;;;;
2019/11/06 02:51:01;;;;;;;6.5;5.2;;;;;;;6.76;96.86328;945.3114;;;;
2019/11/06 02:53:26;;;;;;;5.8;5.2;;;;;;;6.74;95.73047;945.3338;;;;
2019/11/06 02:55:52;;;;;;;6.9;5.2;;;;;;;6.67;96.19336;945.4368;;;;
2019/11/06 02:58:17;;;;;;;7.6;5.8;;;;;;;6.73;96.82324;945.4796;;;;
2019/11/06 03:00:42;;;;;;;6.2;5.4;;;;;;;6.78;97.51758;945.5316;;;;
2019/11/06 03:03:07;;;;;;;6.2;4.8;;;;;;;6.86;96.31543;945.5042;;;;
2019/11/06 03:05:33;;;;;;;5.9;5.1;;;;;;;6.93;96.45898;945.517;;;;
2019/11/06 03:07:58;;;;;;;7.6;4.9;;;;;;;7.06;95.77734;945.4874;;;;
2019/11/06 03:10:24;;;;;;;6.2;4.5;;;;;;;7.03;94.99512;945.4744;;;;
2019/11/06 03:12:49;;;;;;;4.9;4.2;;;;;;;7.08;94.5166;945.5062;;;;
2019/11/06 03:15:15;;;;;;;5.9;4.5;;;;;;;6.95;95.2168;945.5359;;;;
2019/11/06 03:17:40;;;;;;;6.4;4.8;;;;;;;6.79;94.81836;945.5441;;;;
2019/11/06 03:20:06;;;;;;;5.5;4.3;;;;;;;6.79;94.61035;945.5552;;;;
2019/11/06 03:22:31;;;;;;;5.3;4.4;;;;;;;6.86;95.17383;945.5131;;;;
2019/11/06 03:24:56;;;;;;;6.5;4;;;;;;;6.95;94.56836;945.5367;;;;
2019/11/06 03:27:21;;;;;;;5;3.9;;;;;;;6.94;94.48438;945.5343;;;;
2019/11/06 03:29:46;;;;;;;5.5;3.9;;;;;;;6.98;94.52832;945.5661;;;;
2019/11/06 03:32:12;;;;;;;5.8;4.3;;;;;;;6.9;94.44238;945.545;;;;
2019/11/06 03:34:37;;;;;;;5.1;4;;;;;;;7.04;93.67285;945.5837;;;;
2019/11/06 03:37:02;;;;;;;5.7;4.1;;;;;;;6.95;94.14453;945.5319;;;;
2019/11/06 03:39:27;;;;;;;5.3;3.8;;;;;;;6.95;94.7373;945.5731;;;;
2019/11/06 03:41:53;;;;;;;4.8;3.8;;;;;;;6.92;94.32129;945.5939;;;;
2019/11/06 03:44:18;;;;;;;5.5;3.8;;;;;;;6.82;94.0459;945.57;;;;
2019/11/06 03:46:44;;;;;;;5.1;3.7;;;;;;;6.85;94.23633;945.623;;;;
2019/11/06 03:49:09;;;;;;;5.8;3.7;;;;;;;6.74;96.00195;945.634;;;;
2019/11/06 03:51:34;;;;;;;4.6;3.7;;;;;;;6.79;95.80664;945.6272;;;;
2019/11/06 03:53:59;;;;;;;4.4;3.3;;;;;;;6.81;94.71777;945.7319;;;;
2019/11/06 03:56:25;;;;;;;5;3.6;;;;;;;6.79;94.79102;945.726;;;;
2019/11/06 03:58:50;;;;;;;4.9;3.4;;;;;;;6.81;95.15137;945.7043;;;;
2019/11/06 04:02:27;;;;;;;4.3;3.3;;;;;;;6.81;94.7627;945.7392;;;;
2019/11/06 04:04:52;;;;;;;5.6;3.7;;;;;;;6.79;94.71387;945.6863;;;;
2019/11/06 04:07:17;;;;;;;3.8;3.1;;;;;;;6.99;93.76563;945.7029;;;;
2019/11/06 04:09:42;;;;;;;4;3.2;;;;;;;6.93;93.94629;945.738;;;;
2019/11/06 04:12:07;;;;;;;5.3;3.4;;;;;;;6.91;94.26172;945.7628;;;;
2019/11/06 04:14:32;;;;;;;4.7;3.3;;;;;;;6.93;93.80957;945.7485;;;;
2019/11/06 04:16:57;;;;;;;5.5;3.1;;;;;;;6.93;93.83203;945.8044;;;;
2019/11/06 04:19:22;;;;;;;4.9;3.2;;;;;;;6.97;94.2168;945.8334;;;;
2019/11/06 04:21:48;;;;;;;4.2;3.1;;;;;;;6.86;93.96484;945.8605;;;;
2019/11/06 04:24:13;;;;;;;4.8;3.1;;;;;;;6.79;94.23438;945.8514;;;;
2019/11/06 04:26:38;;;;;;;4;3.1;;;;;;;6.92;94.95996;945.8845;;;;
2019/11/06 04:29:04;;;;;;;4.4;3.4;;;;;;;6.8;94.36133;945.8688;;;;
2019/11/06 04:31:29;;;;;;;5.1;3.2;;;;;;;6.8;94.45313;945.8493;;;;
2019/11/06 04:33:54;;;;;;;5.4;3.4;;;;;;;6.8;94.84277;945.8727;;;;
2019/11/06 04:36:19;;;;;;;4.8;3.2;;;;;;;6.92;94.14941;945.9397;;;;
2019/11/06 04:38:44;;;;;;;4.9;3.3;;;;;;;6.69;94.01855;945.9686;;;;
2019/11/06 04:41:09;;;;;;;5.3;3.5;;;;;;;6.72;95.00781;945.9576;;;;
2019/11/06 04:43:34;;;;;;;5;3.4;;;;;;;6.58;94.51758;946.0416;;;;
2019/11/06 04:45:59;;;;;;;6;3.6;;;;;;;6.4;95.44922;945.992;;;;
2019/11/06 04:48:24;;;;;;;5.5;3.6;;;;;;;6.39;95.75488;945.9609;;;;
2019/11/06 04:50:49;;;;;;;6.5;3.6;;;;;;;6.36;95.50977;946.0083;;;;
2019/11/06 04:53:14;;;;;;;6.4;3.7;;;;;;;6.48;96.30859;946.0219;;;;
2019/11/06 04:55:39;;;;;;;5.1;3.3;;;;;;;6.41;95.84961;946.0228;;;;
2019/11/06 04:58:05;;;;;;;4.8;3.5;;;;;;;6.52;95.25879;946.0676;;;;
2019/11/06 05:00:30;;;;;;;6.2;3.5;;;;;;;6.6;94.11328;946.1172;;;;
2019/11/06 05:02:55;;;;;;;4.9;3.8;;;;;;;6.35;94.51367;946.0665;;;;
2019/11/06 05:05:20;;;;;;;4.9;3.3;;;;;;;6.31;94.6084;946.0747;;;;
2019/11/06 05:07:46;;;;;;;7.2;3.6;;;;;;;6.22;95.61426;946.0528;;;;
2019/11/06 05:10:11;;;;;;;5.5;3.6;;;;;;;6.13;94.8877;946.0911;;;;
2019/11/06 05:12:36;;;;;;;5.5;3.5;;;;;;;6.03;95.2627;946.1566;;;;
2019/11/06 05:15:01;;;;;;;4.7;3.3;;;;;;;6.15;94.73438;946.0637;;;;
2019/11/06 05:17:26;;;;;;;4;3.1;;;;;;;6.01;94.90723;946.0935;;;;
2019/11/06 05:19:51;;;;;;;5.1;3.9;;;;;;;6.06;95.56641;946.0923;;;;
2019/11/06 05:22:16;;;;;;;4.6;3.9;;;;;;;6.02;95.19238;946.1089;;;;
2019/11/06 05:24:41;;;;;;;5;3.8;;;;;;;6.12;95.71777;946.1409;;;;
2019/11/06 05:27:06;;;;;;;4.8;3.7;;;;;;;6.24;96.48242;946.111;;;;
2019/11/06 05:29:31;;;;;;;5.5;3.7;;;;;;;6.3;94.79785;946.1158;;;;
2019/11/06 05:31:57;;;;;;;5.2;3.6;;;;;;;6.27;94.14258;946.1203;;;;
2019/11/06 05:34:22;;;;;;;5.7;3.4;;;;;;;6.48;93.80273;946.1789;;;;
2019/11/06 05:36:47;;;;;;;4.7;3.7;;;;;;;6.17;93.63086;946.2428;;;;
2019/11/06 05:39:12;;;;;;;6.2;4.3;;;;;;;6.04;94.52637;946.2928;;;;
2019/11/06 05:41:37;;;;;;;5.7;4;;;;;;;6.07;94.49805;946.3495;;;;
2019/11/06 05:44:02;;;;;;;5.4;3.9;;;;;;;6.05;95.76953;946.3317;;;;
2019/11/06 05:46:27;;;;;;;6.8;3.7;;;;;;;6;94.18652;946.3794;;;;
2019/11/06 05:48:52;;;;;;;4.6;3.7;;;;;;;5.98;94.25977;946.425;;;;
2019/11/06 05:51:17;;;;;;;6.1;3.7;;;;;;;6.03;95.76367;946.4558;;;;
2019/11/06 05:53:42;;;;;;;5.2;3.7;;;;;;;6.2;94.75391;946.4777;;;;
2019/11/06 05:56:07;;;;;;;6;3.5;;;;;;;6.13;93.00879;946.4661;;;;
2019/11/06 05:58:32;;;;;;;4.9;3.5;;;;;;;6.32;93.12891;946.4697;;;;
2019/11/06 06:00:57;;;;;;;6.6;3.9;;;;;;;6.17;93.2666;946.5097;;;;
2019/11/06 06:03:23;;;;;;;7.7;3.9;;;;;;;6.41;93.3877;946.5413;;;;
2019/11/06 06:05:47;;;;;;;5.8;3.5;;;;;;;6.53;92.43262;946.5332;;;;
2019/11/06 06:08:13;;;;;;;5.1;3.8;;;;;;;6.46;93.53418;946.6057;;;;
2019/11/06 06:10:38;;;;;;;5.7;3.9;;;;;;;6.31;93.24121;946.5793;;;;
2019/11/06 06:13:03;;;;;;;5.6;4.4;;;;;;;6.26;93.94727;946.6307;;;;
2019/11/06 06:15:28;;;;;;;6.9;4.4;;;;;;;6.16;93.74316;946.6431;;;;
2019/11/06 06:17:53;;;;;;;5.8;4.1;;;;;;;6.11;93.68555;946.7061;;;;
2019/11/06 06:20:18;;;;;;;6.3;4.1;;;;;;;6.12;93.58496;946.7272;;;;
2019/11/06 06:22:43;;;;;;;5.7;4.1;;;;;;;6.09;93.67969;946.7947;;;;
2019/11/06 06:25:17;;;;;;;6.2;4.2;;;;;;;6.1;93.66309;946.8072;;;;
2019/11/06 06:27:43;;;;;;;5.2;4.2;;;;;;;6.08;93.71387;946.8116;;;;
2019/11/06 06:30:08;;;;;;;6.8;4.2;;;;;;;6.05;93.89063;946.8605;;;;
2019/11/06 06:32:33;;;;;;;8.3;4.8;;;;;;;6.04;94.64063;946.8588;;;;
2019/11/06 06:34:58;;;;;;;7.2;5;;;;;;;5.98;94.62402;946.919;;;;
2019/11/06 06:37:23;;;;;;;7.2;5.4;;;;;;;5.97;95.0459;946.995;;;;
2019/11/06 06:39:48;;;;;;;6.1;5.5;;;;;;;6.04;94.9248;946.972;;;;
2019/11/06 06:42:13;;;;;;;8.2;5.3;;;;;;;6.24;93.96582;946.9643;;;;
2019/11/06 06:44:38;;;;;;;6.6;5;;;;;;;6.17;93.89355;947.0184;;;;
2019/11/06 06:47:03;;;;;;;8.3;5.1;;;;;;;6.18;93.67871;947.0136;;;;
2019/11/06 06:49:29;;;;;;;7.5;5.6;;;;;;;6.18;94.94336;947.0248;;;;
2019/11/06 06:51:54;;;;;;;7.9;5.6;;;;;;;6.16;94.78027;947.0503;;;;
2019/11/06 06:54:19;;;;;;;9.9;5.8;;;;;;;6.17;94.74805;947.0143;;;;
2019/11/06 06:56:44;;;;;;;7.7;5.5;;;;;;;6.22;95.01074;947.0605;;;;
2019/11/06 06:59:09;;;;;;;8.1;5.7;;;;;;;6.29;94.69336;947.0768;;;;
2019/11/06 07:01:34;;;;;;;9;6;;;;;;;6.21;95.14258;947.1078;;;;
2019/11/06 07:03:59;;;;;;;9;6.5;;;;;;;6.21;95.64453;947.1434;;;;
2019/11/06 07:06:24;;;;;;;12.3;6.5;;;;;;;6.22;95.41895;947.0391;;;;
2019/11/06 07:08:49;;;;;;;15;6.7;;;;;;;6.25;95.10742;947.0266;;;;
2019/11/06 07:11:14;;;;;;;9.4;6.7;;;;;;;6.36;94.9375;947.0826;;;;
2019/11/06 07:13:39;;;;;;;11.8;7.2;;;;;;;6.38;95.24902;947.0919;;;;
2019/11/06 07:16:05;;;;;;;11.1;7.2;;;;;;;6.33;95.26172;947.0991;;;;
2019/11/06 07:18:30;;;;;;;12;6.8;;;;;;;6.4;94.83398;947.1505;;;;
2019/11/06 07:20:55;;;;;;;12;7.4;;;;;;;6.35;95.65332;947.1747;;;;
2019/11/06 07:23:20;;;;;;;11.4;7.5;;;;;;;6.4;96.32422;947.2181;;;;
2019/11/06 07:25:45;;;;;;;11.5;7.4;;;;;;;6.34;95.61719;947.2731;;;;
2019/11/06 07:28:10;;;;;;;8.8;7.5;;;;;;;6.44;95.92676;947.3719;;;;
2019/11/06 07:30:35;;;;;;;12.4;7;;;;;;;6.66;95.16309;947.4396;;;;
2019/11/06 07:33:00;;;;;;;10.2;6.9;;;;;;;6.71;94.31934;947.4526;;;;
2019/11/06 07:35:25;;;;;;;8.1;6.6;;;;;;;6.8;94.21387;947.4927;;;;
2019/11/06 07:37:50;;;;;;;7.8;6.5;;;;;;;6.78;94.42578;947.5499;;;;
2019/11/06 07:40:15;;;;;;;10.1;7.2;;;;;;;6.87;94.87988;947.6102;;;;
2019/11/06 07:42:41;;;;;;;10;6.9;;;;;;;6.8;94.17969;947.666;;;;
2019/11/06 07:45:06;;;;;;;9.3;7.6;;;;;;;6.79;95.29688;947.7039;;;;
2019/11/06 07:47:31;;;;;;;8.2;7.4;;;;;;;6.78;94.83691;947.7433;;;;
2019/11/06 07:49:56;;;;;;;12.4;7.8;;;;;;;6.93;94.69922;947.7559;;;;
2019/11/06 07:52:21;;;;;;;9.3;8.4;;;;;;;6.8;95.8584;947.8092;;;;
2019/11/06 07:54:46;;;;;;;8.9;8;;;;;;;6.91;95.3457;947.8563;;;;
2019/11/06 07:57:12;;;;;;;9.2;7.8;;;;;;;6.92;95.95117;947.8554;;;;
2019/11/06 08:01:21;;;;;;;9.7;8.2;;;;;;;6.99;94.83887;947.9275;;;;
2019/11/06 08:03:46;;;;;;;10.5;8.1;;;;;;;7.08;95.28125;947.9239;;;;
2019/11/06 08:06:11;;;;;;;12.9;8.5;;;;;;;7.07;94.98242;947.9295;;;;
2019/11/06 08:08:36;;;;;;;9.9;8.4;;;;;;;7.28;94.68555;947.9735;;;;
2019/11/06 08:11:01;;;;;;;10.1;7.9;;;;;;;7.18;94.44434;948.0323;;;;
2019/11/06 08:13:27;;;;;;;8.8;7.9;;;;;;;7.34;94.77734;948.0553;;;;
2019/11/06 08:15:52;;;;;;;10.5;8.3;;;;;;;7.16;96.2793;948.1169;;;;
2019/11/06 08:18:17;;;;;;;10.1;8.4;;;;;;;7.05;96.87109;948.1267;;;;
2019/11/06 08:20:42;;;;;;;12.6;9.5;;;;;;;6.92;98.53223;948.1242;;;;
2019/11/06 08:23:07;;;;;;;11.3;10.1;;;;;;;6.99;99.90625;948.1211;;;;
2019/11/06 08:25:32;;;;;;;11.7;10.6;;;;;;;7.1;100;948.1016;;;;
2019/11/06 08:27:57;;;;;;;13;10.5;;;;;;;7.23;100;948.0594;;;;
2019/11/06 08:30:22;;;;;;;12.5;11.1;;;;;;;7.31;100;948.033;;;;
2019/11/06 08:32:47;;;;;;;11.9;10.8;;;;;;;7.46;100;948.0129;;;;
2019/11/06 08:35:12;;;;;;;11.2;10.2;;;;;;;7.53;100;947.9919;;;;
2019/11/06 08:37:37;;;;;;;11.6;10.5;;;;;;;7.47;100;947.9838;;;;
2019/11/06 08:40:03;;;;;;;11.9;10.8;;;;;;;7.57;99.83496;948.0038;;;;
2019/11/06 08:42:28;;;;;;;11.4;10.3;;;;;;;7.71;100;948.0781;;;;
2019/11/06 08:44:53;;;;;;;13.7;12;;;;;;;7.67;100;948.133;;;;
2019/11/06 08:47:18;;;;;;;13.6;12.3;;;;;;;7.78;100;948.11;;;;
2019/11/06 08:49:43;;;;;;;12.1;10.7;;;;;;;7.88;99.85059;948.115;;;;
2019/11/06 08:52:08;;;;;;;12.6;11.3;;;;;;;7.98;99.54102;948.1071;;;;
2019/11/06 08:54:33;;;;;;;10.5;9.4;;;;;;;8.05;98.65234;948.0767;;;;
2019/11/06 08:56:58;;;;;;;9.6;8.7;;;;;;;8.18;99.02637;948.0952;;;;
2019/11/06 08:59:24;;;;;;;10.6;9.7;;;;;;;7.95;98.68848;948.2008;;;;
2019/11/06 09:01:49;;;;;;;10.9;9.9;;;;;;;8.07;99.28711;948.185;;;;
2019/11/06 09:04:22;;;;;;;10.5;9.5;;;;;;;8.1;99.86621;948.2332;;;;
2019/11/06 09:06:39;;;;;;;10.2;8.9;;;;;;;8.3;99.27246;948.2781;;;;
2019/11/06 09:09:04;;;;;;;11.4;9.4;;;;;;;8.28;98.4668;948.2324;;;;
2019/11/06 09:11:29;;;;;;;10.1;8.4;;;;;;;8.07;98.19824;948.2718;;;;
2019/11/06 09:13:55;;;;;;;10.4;9.3;;;;;;;8.08;98.11133;948.3281;;;;
2019/11/06 09:16:20;;;;;;;9.6;8.6;;;;;;;8.05;99.35156;948.3253;;;;
2019/11/06 09:18:45;;;;;;;9.5;8.6;;;;;;;8.27;98.28027;948.3387;;;;
2019/11/06 09:21:10;;;;;;;10.4;9.3;;;;;;;8.19;98.49023;948.3208;;;;
2019/11/06 09:23:36;;;;;;;8.2;7.4;;;;;;;8.08;97.40137;948.3711;;;;
2019/11/06 09:26:01;;;;;;;8.3;7.5;;;;;;;8.12;97.95898;948.3292;;;;
2019/11/06 09:28:27;;;;;;;8.2;7.5;;;;;;;8.19;97.97559;948.3484;;;;
2019/11/06 09:30:52;;;;;;;8.1;7.4;;;;;;;8.23;97.6875;948.4374;;;;
2019/11/06 09:33:18;;;;;;;7.4;6.8;;;;;;;8.29;97.27637;948.4299;;;;
2019/11/06 09:35:43;;;;;;;8;7.3;;;;;;;8.32;97.95996;948.4156;;;;
2019/11/06 09:38:08;;;;;;;11.5;10.3;;;;;;;8.28;97.42285;948.4718;;;;
2019/11/06 09:40:34;;;;;;;7.6;6.9;;;;;;;8.16;97.68457;948.4958;;;;
2019/11/06 09:42:59;;;;;;;6.9;6.3;;;;;;;8.1;98.62988;948.539;;;;
2019/11/06 09:45:24;;;;;;;7.6;6.9;;;;;;;8.29;98.32031;948.6247;;;;
2019/11/06 09:47:49;;;;;;;6.7;6.1;;;;;;;8.38;97.61914;948.649;;;;
2019/11/06 09:50:14;;;;;;;6.5;5.7;;;;;;;8.17;97.19238;948.6672;;;;
2019/11/06 09:52:40;;;;;;;7.1;6;;;;;;;8.26;97.68457;948.678;;;;
2019/11/06 09:55:05;;;;;;;6;5.5;;;;;;;8.13;96.96973;948.6106;;;;
2019/11/06 09:57:30;;;;;;;5.4;5;;;;;;;8.24;96.41895;948.6484;;;;
2019/11/06 09:59:55;;;;;;;5.1;4.3;;;;;;;8.31;96.89355;948.6563;;;;
2019/11/06 10:02:20;;;;;;;4.3;3.9;;;;;;;8.32;96.2998;948.6948;;;;
2019/11/06 10:04:45;;;;;;;4.6;4;;;;;;;8.5;97.1875;948.6838;;;;
2019/11/06 10:07:10;;;;;;;3.5;3.2;;;;;;;8.34;95.92578;948.6989;;;;
2019/11/06 10:09:35;;;;;;;3.9;3.5;;;;;;;8.23;96.88672;948.6939;;;;
2019/11/06 10:12:01;;;;;;;3.7;3.2;;;;;;;8.43;97.75781;948.7106;;;;
2019/11/06 10:14:26;;;;;;;2.9;2.7;;;;;;;8.29;96.67188;948.7358;;;;
2019/11/06 10:16:51;;;;;;;3.4;2.9;;;;;;;8.33;97.58398;948.7597;;;;
2019/11/06 10:19:16;;;;;;;3.3;3;;;;;;;8.32;97.37598;948.7272;;;;
2019/11/06 10:21:42;;;;;;;3.1;2.6;;;;;;;8.43;96.71289;948.7033;;;;
2019/11/06 10:24:07;;;;;;;3.5;2.9;;;;;;;8.53;98.58008;948.6889;;;;
2019/11/06 10:26:32;;;;;;;3.5;3.2;;;;;;;8.44;98.52441;948.7068;;;;
2019/11/06 10:28:57;;;;;;;4.4;4;;;;;;;8.47;99.50488;948.6641;;;;
2019/11/06 10:31:23;;;;;;;4;2.8;;;;;;;8.38;98.12109;948.71;;;;
2019/11/06 10:33:48;;;;;;;3.3;2.8;;;;;;;8.43;98.76367;948.6886;;;;
2019/11/06 10:36:14;;;;;;;3.2;2.9;;;;;;;8.55;98.40234;948.6638;;;;
2019/11/06 10:38:39;;;;;;;2.9;2.7;;;;;;;8.31;97.55762;948.662;;;;
2019/11/06 10:41:04;;;;;;;3.6;3.3;;;;;;;8.32;98.47559;948.6225;;;;
2019/11/06 10:43:29;;;;;;;3;2.7;;;;;;;8.5;97.11914;948.6091;;;;
2019/11/06 10:45:54;;;;;;;3.1;2.8;;;;;;;8.48;98.2832;948.5966;;;;
2019/11/06 10:48:19;;;;;;;2.6;2.4;;;;;;;8.5;96.15625;948.5613;;;;
2019/11/06 10:50:44;;;;;;;2.5;1.8;;;;;;;8.39;94.60742;948.5341;;;;
2019/11/06 10:53:10;;;;;;;2.8;2.5;;;;;;;8.44;96.27051;948.5047;;;;
2019/11/06 10:55:35;;;;;;;2.2;2;;;;;;;8.47;96.18555;948.4895;;;;
2019/11/06 10:58:00;;;;;;;2.4;2.2;;;;;;;8.52;94.69629;948.4995;;;;
2019/11/06 11:00:25;;;;;;;2.5;2.3;;;;;;;8.65;95.82227;948.5008;;;;
2019/11/06 11:02:50;;;;;;;3.2;2.3;;;;;;;8.68;95.42871;948.4377;;;;
2019/11/06 11:05:15;;;;;;;2.7;2.5;;;;;;;8.94;96.49512;948.4345;;;;
2019/11/06 11:07:41;;;;;;;2.9;2.7;;;;;;;8.92;95.08105;948.4378;;;;
2019/11/06 11:10:06;;;;;;;3.1;2.8;;;;;;;8.87;96.13574;948.4431;;;;
2019/11/06 11:12:31;;;;;;;3.2;2.9;;;;;;;9.02;94.67871;948.4506;;;;
2019/11/06 11:14:56;;;;;;;3;2.7;;;;;;;8.84;95.39551;948.4347;;;;
2019/11/06 11:17:21;;;;;;;3.5;2.7;;;;;;;8.98;95.72363;948.4375;;;;
2019/11/06 11:19:47;;;;;;;2.9;2.6;;;;;;;9.18;96.61816;948.4656;;;;
2019/11/06 11:22:12;;;;;;;3.3;3;;;;;;;9.1;95.98145;948.4099;;;;
2019/11/06 11:24:37;;;;;;;3.1;2.8;;;;;;;9.13;95.50488;948.3823;;;;
2019/11/06 11:27:02;;;;;;;3.2;3;;;;;;;9.2;94.83301;948.3973;;;;
2019/11/06 11:29:27;;;;;;;2.9;2.7;;;;;;;9.12;94.29883;948.4048;;;;
2019/11/06 11:31:52;;;;;;;3.3;2.9;;;;;;;9.15;96.11914;948.3742;;;;
2019/11/06 11:34:18;;;;;;;2.9;2.7;;;;;;;9.14;93.62793;948.4001;;;;
2019/11/06 11:36:43;;;;;;;3.4;3.1;;;;;;;9.06;94.68848;948.4597;;;;
2019/11/06 11:39:08;;;;;;;4.5;2.9;;;;;;;9.14;95.73633;948.3904;;;;
2019/11/06 11:41:33;;;;;;;3.3;3;;;;;;;9.05;94.93652;948.4508;;;;
2019/11/06 11:43:58;;;;;;;3.5;3.2;;;;;;;8.99;97.03516;948.4188;;;;
2019/11/06 11:46:23;;;;;;;4.8;4.3;;;;;;;9.01;97.55566;948.3719;;;;
2019/11/06 11:48:49;;;;;;;3.7;3.4;;;;;;;8.98;96.5166;948.4073;;;;
2019/11/06 11:51:14;;;;;;;3.6;3.2;;;;;;;8.85;97.34668;948.403;;;;
2019/11/06 11:53:39;;;;;;;3.5;3.2;;;;;;;8.87;97.00879;948.4528;;;;
2019/11/06 11:56:04;;;;;;;3.4;3.1;;;;;;;8.92;96.31934;948.4241;;;;
2019/11/06 11:58:29;;;;;;;3.2;2.9;;;;;;;8.74;94.61816;948.3975;;;;
2019/11/06 12:00:55;;;;;;;4.4;3.6;;;;;;;8.88;97.10059;948.4747;;;;
2019/11/06 12:03:20;;;;;;;4.7;3.5;;;;;;;8.93;95.70215;948.5165;;;;
2019/11/06 12:05:46;;;;;;;4.6;3.5;;;;;;;8.97;96.48047;948.5276;;;;
2019/11/06 12:08:11;;;;;;;4.4;4;;;;;;;9.12;96.35449;948.5072;;;;
2019/11/06 12:10:36;;;;;;;4.3;3.5;;;;;;;9.19;93.94922;948.4786;;;;
2019/11/06 12:13:01;;;;;;;3.3;3;;;;;;;9.38;92.89844;948.465;;;;
2019/11/06 12:15:27;;;;;;;3;2.5;;;;;;;9.33;90.57031;948.454;;;;
2019/11/06 12:17:52;;;;;;;3;2.5;;;;;;;9.25;92.49219;948.4595;;;;
2019/11/06 12:20:17;;;;;;;2.7;2.5;;;;;;;9.39;91.9707;948.5027;;;;
2019/11/06 12:22:42;;;;;;;3;2.7;;;;;;;9.38;91.7959;948.5162;;;;
2019/11/06 12:25:07;;;;;;;2.6;2.3;;;;;;;9.56;91.37695;948.5447;;;;
2019/11/06 12:27:33;;;;;;;2.8;2.5;;;;;;;9.55;90.65137;948.5416;;;;
2019/11/06 12:29:58;;;;;;;2.7;2.3;;;;;;;9.52;91.90723;948.5056;;;;
2019/11/06 12:32:23;;;;;;;2.4;2.2;;;;;;;9.73;90.38867;948.5179;;;;
2019/11/06 12:34:48;;;;;;;2.1;1.9;;;;;;;9.74;89.09473;948.4919;;;;
2019/11/06 12:37:13;;;;;;;2;1.8;;;;;;;9.85;86.99121;948.4558;;;;
2019/11/06 12:39:39;;;;;;;2;1.3;;;;;;;9.56;86.87598;948.4886;;;;
2019/11/06 12:42:04;;;;;;;1.5;1.4;;;;;;;9.63;89.35742;948.462;;;;
2019/11/06 12:44:29;;;;;;;3.4;1.1;;;;;;;9.56;87.82715;948.4163;;;;
2019/11/06 12:46:55;;;;;;;1.4;1.1;;;;;;;9.37;87.88086;948.3635;;;;
2019/11/06 12:49:20;;;;;;;1.3;1.2;;;;;;;9.47;89.85254;948.3524;;;;
2019/11/06 12:51:45;;;;;;;1.9;1.3;;;;;;;9.32;89.62598;948.3086;;;;
2019/11/06 12:54:10;;;;;;;1.8;1.3;;;;;;;9.38;91.18945;948.2861;;;;
2019/11/06 12:56:35;;;;;;;1.3;1.2;;;;;;;9.37;89.68262;948.2911;;;;
2019/11/06 12:59:01;;;;;;;1.6;1.5;;;;;;;9.37;89.92383;948.2033;;;;
2019/11/06 13:01:26;;;;;;;1.5;1.2;;;;;;;9.44;90.65039;948.223;;;;
2019/11/06 13:03:51;;;;;;;3;1.6;;;;;;;9.65;89.37305;948.162;;;;
2019/11/06 13:06:16;;;;;;;1.8;1.3;;;;;;;9.5;88.72363;948.1956;;;;
2019/11/06 13:08:41;;;;;;;2.7;1.5;;;;;;;9.34;89.28516;948.1478;;;;
2019/11/06 13:11:06;;;;;;;1.8;1.2;;;;;;;9.53;89.34863;948.2527;;;;
2019/11/06 13:13:32;;;;;;;1.7;1.2;;;;;;;9.45;88.27734;948.246;;;;
2019/11/06 13:15:57;;;;;;;1.9;1.2;;;;;;;9.56;87.95313;948.2829;;;;
2019/11/06 13:18:22;;;;;;;1.2;1;;;;;;;9.58;86.85449;948.2798;;;;
2019/11/06 13:20:47;;;;;;;1.3;0.8;;;;;;;9.7;86.57031;948.2332;;;;
2019/11/06 13:23:12;;;;;;;1.2;1;;;;;;;9.68;85.64551;948.2761;;;;
2019/11/06 13:25:37;;;;;;;1.9;1.1;;;;;;;9.82;85.63965;948.3125;;;;
2019/11/06 13:28:03;;;;;;;1.2;1.1;;;;;;;9.79;85.72656;948.3123;;;;
2019/11/06 13:30:28;;;;;;;1.2;1.1;;;;;;;9.78;86.41406;948.3011;;;;
2019/11/06 13:32:53;;;;;;;1.1;1;;;;;;;9.78;85.93164;948.3236;;;;
2019/11/06 13:35:19;;;;;;;1.4;1.2;;;;;;;9.87;86.15625;948.3176;;;;
2019/11/06 13:37:44;;;;;;;2.5;0.8;;;;;;;9.76;84.48047;948.3205;;;;
2019/11/06 13:40:09;;;;;;;1;0.9;;;;;;;9.82;84.49121;948.3621;;;;
2019/11/06 13:42:35;;;;;;;1.2;0.7;;;;;;;9.73;83.73828;948.3895;;;;
2019/11/06 13:45:00;;;;;;;1.7;0.9;;;;;;;9.83;83.06934;948.4694;;;;
2019/11/06 13:47:25;;;;;;;1.5;1.1;;;;;;;9.94;84.00781;948.4537;;;;
2019/11/06 13:49:50;;;;;;;1.9;1.1;;;;;;;9.8;84.12109;948.4417;;;;
2019/11/06 13:52:15;;;;;;;0.9;0.8;;;;;;;9.86;84.00586;948.5037;;;;
2019/11/06 13:54:40;;;;;;;2;1.2;;;;;;;9.88;83.12402;948.4983;;;;
2019/11/06 13:57:06;;;;;;;2.6;1.1;;;;;;;9.74;84.47461;948.5829;;;;
2019/11/06 13:59:31;;;;;;;2.4;0.9;;;;;;;9.7;84.1582;948.6261;;;;
2019/11/06 14:01:56;;;;;;;0.9;0.8;;;;;;;9.8;83.59082;948.65;;;;
2019/11/06 14:04:21;;;;;;;0.9;0.8;;;;;;;9.76;85.49121;948.5978;;;;
2019/11/06 14:06:46;;;;;;;1.9;1;;;;;;;9.78;85.47168;948.6713;;;;
2019/11/06 14:09:11;;;;;;;2.2;1.6;;;;;;;9.98;85.03906;948.6083;;;;
2019/11/06 14:11:37;;;;;;;3.8;2.6;;;;;;;9.81;85.70703;948.6866;;;;
2019/11/06 14:14:02;;;;;;;3.3;2.8;;;;;;;9.82;87.04102;948.6509;;;;
2019/11/06 14:16:27;;;;;;;2.2;1;;;;;;;9.95;84.98828;948.6864;;;;
2019/11/06 14:18:52;;;;;;;1.4;1.2;;;;;;;9.69;86.7959;948.7177;;;;
2019/11/06 14:21:17;;;;;;;1.3;1.2;;;;;;;9.72;87.9082;948.762;;;;
2019/11/06 14:23:43;;;;;;;1.4;1.3;;;;;;;9.85;87.70215;948.7495;;;;
2019/11/06 14:26:08;;;;;;;4.2;1.5;;;;;;;9.76;87.20117;948.7629;;;;
2019/11/06 14:28:33;;;;;;;2;1.3;;;;;;;9.64;88.38477;948.7283;;;;
2019/11/06 14:30:59;;;;;;;2.7;1.5;;;;;;;9.63;87.41699;948.7516;;;;